createdAt,value
2022-08-05T00:00:51.811Z,98657.27
2022-08-05T00:01:53.670Z,98656.42
2022-08-05T00:02:55.617Z,98656.70
2022-08-05T00:03:57.634Z,98654.15
2022-08-05T00:04:59.599Z,98652.98
2022-08-05T00:06:04.908Z,98652.41
2022-08-05T00:07:58.930Z,98652.27
2022-08-05T00:08:45.601Z,98653.60
2022-08-05T00:09:49.211Z,98649.93
2022-08-05T00:10:50.853Z,98648.73
2022-08-05T00:11:56.079Z,98650.78
2022-08-05T00:13:01.713Z,98651.42
2022-08-05T00:14:11.981Z,98653.77
2022-08-05T00:15:55.876Z,98652.21
2022-08-05T00:16:52.595Z,98652.73
2022-08-05T00:17:54.936Z,98648.04
2022-08-05T00:18:56.769Z,98646.31
2022-08-05T00:20:02.816Z,98648.98
2022-08-05T00:21:06.860Z,98644.91
2022-08-05T00:22:11.129Z,98644.94
2022-08-05T00:23:13.384Z,98644.23
2022-08-05T00:24:16.068Z,98644.42
2022-08-05T00:25:20.738Z,98643.62
2022-08-05T00:26:22.557Z,98642.23
2022-08-05T00:27:28.398Z,98642.21
2022-08-05T00:28:37.737Z,98642.82
2022-08-05T00:29:41.489Z,98642.89
2022-08-05T00:30:44.074Z,98644.27
2022-08-05T00:32:10.471Z,98639.06
2022-08-05T00:34:42.007Z,98641.66
2022-08-05T00:34:55.634Z,98641.05
2022-08-05T00:36:16.017Z,98641.61
2022-08-05T00:37:14.255Z,98640.57
2022-08-05T00:38:16.225Z,98638.42
2022-08-05T00:39:41.603Z,98634.61
2022-08-05T00:40:55.003Z,98635.21
2022-08-05T00:41:56.695Z,98634.19
2022-08-05T00:43:02.165Z,98637.04
2022-08-05T00:44:05.102Z,98636.24
2022-08-05T00:45:11.854Z,98636.86
2022-08-05T00:46:15.257Z,98637.96
2022-08-05T00:47:17.648Z,98633.09
2022-08-05T00:48:27.412Z,98629.97
2022-08-05T00:49:44.790Z,98629.96
2022-08-05T00:50:54.278Z,98629.06
2022-08-05T00:51:55.957Z,98627.27
2022-08-05T00:52:57.704Z,98629.05
2022-08-05T00:54:02.803Z,98626.15
2022-08-05T00:55:05.487Z,98632.61
2022-08-05T00:56:08.262Z,98626.91
2022-08-05T00:57:10.015Z,98627.77
2022-08-05T00:58:13.849Z,98625.55
2022-08-05T00:59:15.476Z,98629.84
2022-08-05T01:00:17.330Z,98626.85
2022-08-05T01:01:24.958Z,98628.92
2022-08-05T01:02:43.458Z,98627.77
2022-08-05T01:03:45.757Z,98629.87
2022-08-05T01:04:51.772Z,98624.99
2022-08-05T01:05:54.624Z,98626.17
2022-08-05T01:06:57.072Z,98623.34
2022-08-05T01:08:40.575Z,98625.61
2022-08-05T01:09:20.532Z,98625.90
2022-08-05T01:10:38.529Z,98628.35
2022-08-05T01:11:42.130Z,98627.73
2022-08-05T01:13:00.408Z,98627.42
2022-08-05T01:14:33.769Z,98624.45
2022-08-05T01:15:47.900Z,98624.59
2022-08-05T01:17:02.141Z,98624.23
2022-08-05T01:18:09.590Z,98624.98
2022-08-05T01:19:56.650Z,98620.80
2022-08-05T01:21:38.135Z,98621.06
2022-08-05T01:23:15.253Z,98618.39
2022-08-05T01:24:39.355Z,98617.42
2022-08-05T01:26:12.854Z,98617.55
2022-08-05T01:27:28.941Z,98611.67
2022-08-05T01:28:43.989Z,98613.50
2022-08-05T01:29:49.940Z,98611.14
2022-08-05T01:30:59.528Z,98611.17
2022-08-05T01:32:12.323Z,98607.37
2022-08-05T01:33:19.734Z,98603.73
2022-08-05T01:34:32.206Z,98600.89
2022-08-05T01:35:51.596Z,98603.61
2022-08-05T01:37:25.083Z,98602.92
2022-08-05T01:38:30.249Z,98600.51
2022-08-05T01:39:46.573Z,98600.98
2022-08-05T01:40:52.854Z,98599.02
2022-08-05T01:41:58.740Z,98598.50
2022-08-05T01:43:03.577Z,98597.69
2022-08-05T01:44:09.863Z,98595.20
2022-08-05T01:45:16.830Z,98595.78
2022-08-05T01:46:42.077Z,98596.13
2022-08-05T01:47:46.572Z,98598.34
2022-08-05T01:48:52.774Z,98596.09
2022-08-05T01:50:02.815Z,98597.47
2022-08-05T01:51:12.157Z,98601.08
2022-08-05T01:52:17.939Z,98594.52
2022-08-05T01:53:55.151Z,98591.60
2022-08-05T01:54:55.935Z,98587.39
2022-08-05T01:56:04.517Z,98588.14
2022-08-05T01:58:10.212Z,98585.31
2022-08-05T01:58:44.651Z,98585.39
2022-08-05T01:59:58.528Z,98586.02
2022-08-05T02:01:03.220Z,98585.61
2022-08-05T02:02:07.445Z,98581.00
2022-08-05T02:03:38.973Z,98584.88
2022-08-05T02:04:46.146Z,98583.34
2022-08-05T02:05:57.884Z,98585.73
2022-08-05T02:07:03.420Z,98585.31
2022-08-05T02:08:06.000Z,98587.48
2022-08-05T02:09:08.512Z,98586.64
2022-08-05T02:10:17.317Z,98588.40
2022-08-05T02:11:23.834Z,98589.27
2022-08-05T02:12:50.997Z,98586.17
2022-08-05T02:14:13.035Z,98585.33
2022-08-05T02:15:33.340Z,98583.61
2022-08-05T02:16:52.853Z,98583.03
2022-08-05T02:18:30.925Z,98581.40
2022-08-05T02:19:34.268Z,98577.55
2022-08-05T02:20:58.720Z,98576.67
2022-08-05T02:22:25.651Z,98572.08
2022-08-05T02:23:37.112Z,98570.67
2022-08-05T02:24:48.038Z,98568.27
2022-08-05T02:25:56.281Z,98568.52
2022-08-05T02:27:10.152Z,98567.36
2022-08-05T02:28:14.989Z,98563.27
2022-08-05T02:29:26.174Z,98565.20
2022-08-05T02:30:54.559Z,98565.11
2022-08-05T02:31:58.775Z,98564.40
2022-08-05T02:33:10.063Z,98568.42
2022-08-05T02:34:16.955Z,98563.43
2022-08-05T02:35:28.336Z,98565.64
2022-08-05T02:36:41.192Z,98560.73
2022-08-05T02:37:46.494Z,98558.68
2022-08-05T02:38:53.386Z,98558.21
2022-08-05T02:39:55.793Z,98558.92
2022-08-05T02:41:00.142Z,98559.63
2022-08-05T02:42:25.940Z,98557.51
2022-08-05T02:43:32.434Z,98562.46
2022-08-05T02:44:39.492Z,98556.70
2022-08-05T02:45:52.688Z,98560.85
2022-08-05T02:47:00.609Z,98561.05
2022-08-05T02:48:11.716Z,98556.95
2022-08-05T02:49:18.173Z,98561.30
2022-08-05T02:50:26.390Z,98558.56
2022-08-05T02:52:02.857Z,98555.39
2022-08-05T02:52:53.803Z,98555.36
2022-08-05T02:54:03.169Z,98554.80
2022-08-05T02:55:10.824Z,98554.42
2022-08-05T02:56:16.014Z,98551.69
2022-08-05T02:58:11.545Z,98553.91
2022-08-05T02:58:45.472Z,98552.27
2022-08-05T02:59:54.394Z,98553.59
2022-08-05T03:00:58.843Z,98553.14
2022-08-05T03:02:02.892Z,98549.85
2022-08-05T03:03:07.663Z,98549.46
2022-08-05T03:04:15.776Z,98551.13
2022-08-05T03:05:21.647Z,98552.16
2022-08-05T03:06:55.387Z,98547.92
2022-08-05T03:08:08.959Z,98550.57
2022-08-05T03:09:17.963Z,98543.92
2022-08-05T03:10:37.713Z,98544.16
2022-08-05T03:11:55.639Z,98546.13
2022-08-05T03:14:03.023Z,98540.98
2022-08-05T03:15:09.157Z,98540.55
2022-08-05T03:16:11.133Z,98537.87
2022-08-05T03:17:17.461Z,98541.38
2022-08-05T03:18:24.618Z,98538.52
2022-08-05T03:19:34.184Z,98537.38
2022-08-05T03:20:38.112Z,98539.52
2022-08-05T03:21:49.722Z,98538.81
2022-08-05T03:22:53.180Z,98535.37
2022-08-05T03:24:00.590Z,98535.70
2022-08-05T03:25:31.640Z,98532.59
2022-08-05T03:26:30.938Z,98533.39
2022-08-05T03:27:57.587Z,98535.00
2022-08-05T03:28:56.350Z,98536.30
2022-08-05T03:30:08.387Z,98536.86
2022-08-05T03:31:11.199Z,98536.35
2022-08-05T03:32:33.110Z,98537.98
2022-08-05T03:33:51.032Z,98535.14
2022-08-05T03:34:55.133Z,98536.00
2022-08-05T03:35:58.750Z,98536.17
2022-08-05T03:37:01.535Z,98533.50
2022-08-05T03:38:03.962Z,98540.56
2022-08-05T03:39:13.188Z,98532.48
2022-08-05T03:40:31.264Z,98536.84
2022-08-05T03:41:45.149Z,98537.12
2022-08-05T03:42:52.388Z,98535.25
2022-08-05T03:44:08.731Z,98536.34
2022-08-05T03:45:22.762Z,98539.63
2022-08-05T03:46:26.821Z,98534.83
2022-08-05T03:47:35.356Z,98535.77
2022-08-05T03:48:42.915Z,98532.06
2022-08-05T03:49:52.027Z,98536.64
2022-08-05T03:52:38.509Z,98532.48
2022-08-05T03:55:34.462Z,98532.34
2022-08-05T03:55:51.303Z,98530.95
2022-08-05T03:56:33.090Z,98534.58
2022-08-05T03:57:42.253Z,98535.55
2022-08-05T03:58:47.592Z,98533.33
2022-08-05T04:00:19.548Z,98531.59
2022-08-05T04:01:25.268Z,98532.30
2022-08-05T04:02:37.698Z,98533.06
2022-08-05T04:04:10.259Z,98531.98
2022-08-05T04:05:10.584Z,98531.94
2022-08-05T04:06:12.795Z,98535.96
2022-08-05T04:07:15.279Z,98530.70
2022-08-05T04:08:34.630Z,98533.76
2022-08-05T04:09:38.685Z,98534.20
2022-08-05T04:10:58.095Z,98527.82
2022-08-05T04:11:59.978Z,98529.93
2022-08-05T04:13:03.420Z,98531.83
2022-08-05T04:14:07.255Z,98530.30
2022-08-05T04:15:10.743Z,98529.40
2022-08-05T04:16:24.080Z,98527.17
2022-08-05T04:17:55.475Z,98529.94
2022-08-05T04:18:54.455Z,98529.00
2022-08-05T04:19:58.738Z,98530.52
2022-08-05T04:21:00.652Z,98524.91
2022-08-05T04:22:09.957Z,98528.03
2022-08-05T04:23:16.104Z,98528.03
2022-08-05T04:24:19.555Z,98527.75
2022-08-05T04:25:57.555Z,98525.20
2022-08-05T04:26:46.216Z,98529.46
2022-08-05T04:27:58.175Z,98523.58
2022-08-05T04:29:07.320Z,98525.02
2022-08-05T04:30:09.959Z,98522.20
2022-08-05T04:31:11.680Z,98524.05
2022-08-05T04:32:13.615Z,98523.99
2022-08-05T04:33:17.538Z,98523.14
2022-08-05T04:34:42.993Z,98528.09
2022-08-05T04:36:16.356Z,98528.58
2022-08-05T04:37:06.924Z,98527.03
2022-08-05T04:38:09.086Z,98522.80
2022-08-05T04:39:10.817Z,98525.12
2022-08-05T04:40:14.703Z,98525.08
2022-08-05T04:41:21.390Z,98527.37
2022-08-05T04:42:38.280Z,98527.36
2022-08-05T04:43:48.089Z,98524.63
2022-08-05T04:44:53.742Z,98524.67
2022-08-05T04:45:55.723Z,98523.42
2022-08-05T04:46:59.526Z,98521.92
2022-08-05T04:48:18.441Z,98525.30
2022-08-05T04:49:38.807Z,98527.77
2022-08-05T04:51:01.939Z,98529.36
2022-08-05T04:52:06.421Z,98524.73
2022-08-05T04:53:10.947Z,98528.58
2022-08-05T04:54:14.710Z,98529.45
2022-08-05T04:55:16.499Z,98531.02
2022-08-05T04:56:35.191Z,98530.11
2022-08-05T04:57:38.681Z,98532.02
2022-08-05T04:58:40.818Z,98533.73
2022-08-05T04:59:42.468Z,98532.85
2022-08-05T05:00:50.825Z,98530.56
2022-08-05T05:02:07.417Z,98532.50
2022-08-05T05:03:14.725Z,98532.86
2022-08-05T05:04:21.980Z,98529.61
2022-08-05T05:05:28.258Z,98532.30
2022-08-05T05:06:39.618Z,98532.02
2022-08-05T05:07:46.060Z,98529.67
2022-08-05T05:08:58.069Z,98534.41
2022-08-05T05:10:05.401Z,98536.27
2022-08-05T05:11:08.105Z,98534.83
2022-08-05T05:12:09.769Z,98540.37
2022-08-05T05:13:15.727Z,98540.73
2022-08-05T05:14:17.647Z,98539.87
2022-08-05T05:15:56.546Z,98540.88
2022-08-05T05:16:51.585Z,98542.44
2022-08-05T05:17:57.737Z,98545.54
2022-08-05T05:19:19.530Z,98542.52
2022-08-05T05:20:22.450Z,98546.11
2022-08-05T05:21:29.834Z,98547.41
2022-08-05T05:22:35.605Z,98547.61
2022-08-05T05:24:03.781Z,98547.54
2022-08-05T05:25:16.543Z,98547.63
2022-08-05T05:26:19.739Z,98547.54
2022-08-05T05:27:44.348Z,98545.84
2022-08-05T05:28:50.493Z,98547.17
2022-08-05T05:30:04.652Z,98548.17
2022-08-05T05:31:08.881Z,98542.48
2022-08-05T05:32:12.579Z,98544.33
2022-08-05T05:33:17.699Z,98543.28
2022-08-05T05:34:26.697Z,98545.10
2022-08-05T05:35:34.274Z,98540.58
2022-08-05T05:36:39.480Z,98541.83
2022-08-05T05:38:01.450Z,98544.51
2022-08-05T05:39:04.465Z,98543.77
2022-08-05T05:40:07.112Z,98544.34
2022-08-05T05:41:09.358Z,98547.70
2022-08-05T05:42:14.025Z,98540.10
2022-08-05T05:43:16.126Z,98548.29
2022-08-05T05:44:35.777Z,98551.25
2022-08-05T05:45:38.711Z,98548.02
2022-08-05T05:46:49.987Z,98539.80
2022-08-05T05:48:05.469Z,98542.97
2022-08-05T05:49:13.534Z,98544.59
2022-08-05T05:50:25.793Z,98543.71
2022-08-05T05:51:28.004Z,98546.55
2022-08-05T05:52:34.581Z,98542.79
2022-08-05T05:53:54.541Z,98543.90
2022-08-05T05:55:01.959Z,98543.29
2022-08-05T05:56:09.580Z,98538.39
2022-08-05T05:57:19.001Z,98538.86
2022-08-05T05:58:21.585Z,98538.01
2022-08-05T05:59:33.006Z,98534.90
2022-08-05T06:00:42.108Z,98536.85
2022-08-05T06:01:57.705Z,98536.83
2022-08-05T06:03:02.319Z,98535.73
2022-08-05T06:04:04.467Z,98540.20
2022-08-05T06:05:16.521Z,98539.50
2022-08-05T06:06:18.761Z,98537.84
2022-08-05T06:07:24.328Z,98540.23
2022-08-05T06:08:44.393Z,98542.73
2022-08-05T06:10:01.659Z,98541.66
2022-08-05T06:11:07.538Z,98541.77
2022-08-05T06:12:09.555Z,98538.64
2022-08-05T06:13:11.519Z,98540.73
2022-08-05T06:14:13.907Z,98541.67
2022-08-05T06:15:24.125Z,98542.47
2022-08-05T06:16:29.202Z,98545.86
2022-08-05T06:17:52.795Z,98545.64
2022-08-05T06:18:55.498Z,98542.04
2022-08-05T06:20:02.091Z,98542.02
2022-08-05T06:21:04.898Z,98544.58
2022-08-05T06:22:09.784Z,98542.30
2022-08-05T06:23:11.425Z,98542.63
2022-08-05T06:24:14.744Z,98541.34
2022-08-05T06:25:59.324Z,98546.62
2022-08-05T06:26:38.241Z,98542.86
2022-08-05T06:28:09.158Z,98542.09
2022-08-05T06:29:03.681Z,98543.13
2022-08-05T06:30:23.311Z,98538.20
2022-08-05T06:31:30.386Z,98538.75
2022-08-05T06:32:32.407Z,98533.90
2022-08-05T06:34:06.869Z,98535.55
2022-08-05T06:34:58.674Z,98532.34
2022-08-05T06:36:05.774Z,98526.36
2022-08-05T06:37:11.137Z,98533.10
2022-08-05T06:38:14.469Z,98526.34
2022-08-05T06:39:17.826Z,98525.95
2022-08-05T06:40:27.729Z,98528.40
2022-08-05T06:41:29.969Z,98528.48
2022-08-05T06:42:37.063Z,98530.30
2022-08-05T06:43:58.763Z,98528.38
2022-08-05T06:45:05.561Z,98529.38
2022-08-05T06:46:10.091Z,98526.83
2022-08-05T06:47:21.662Z,98528.43
2022-08-05T06:48:55.314Z,98529.93
2022-08-05T06:50:01.566Z,98528.29
2022-08-05T06:51:09.513Z,98527.73
2022-08-05T06:52:36.965Z,98529.20
2022-08-05T06:53:39.315Z,98529.39
2022-08-05T06:54:41.214Z,98527.67
2022-08-05T06:55:42.959Z,98529.41
2022-08-05T06:56:54.820Z,98526.90
2022-08-05T06:58:20.008Z,98525.84
2022-08-05T06:59:30.813Z,98523.73
2022-08-05T07:00:41.159Z,98521.20
2022-08-05T07:01:43.077Z,98521.90
2022-08-05T07:02:47.883Z,98523.20
2022-08-05T07:03:55.614Z,98516.23
2022-08-05T07:04:57.278Z,98520.32
2022-08-05T07:06:05.992Z,98518.41
2022-08-05T07:07:15.735Z,98517.40
2022-08-05T07:08:26.130Z,98517.45
2022-08-05T07:09:32.301Z,98521.27
2022-08-05T07:10:34.264Z,98516.54
2022-08-05T07:11:37.095Z,98520.86
2022-08-05T07:12:57.588Z,98520.37
2022-08-05T07:14:29.716Z,98522.02
2022-08-05T07:16:00.983Z,98526.36
2022-08-05T07:18:01.615Z,98524.42
2022-08-05T07:18:29.277Z,98518.48
2022-08-05T07:20:16.710Z,98522.72
2022-08-05T07:20:53.993Z,98521.63
2022-08-05T07:21:59.856Z,98521.92
2022-08-05T07:23:02.988Z,98518.67
2022-08-05T07:24:11.212Z,98523.95
2022-08-05T07:25:54.345Z,98518.26
2022-08-05T07:26:34.922Z,98521.77
2022-08-05T07:27:56.656Z,98517.66
2022-08-05T07:28:59.770Z,98517.80
2022-08-05T07:30:27.919Z,98518.02
2022-08-05T07:31:54.196Z,98522.35
2022-08-05T07:32:45.444Z,98515.36
2022-08-05T07:33:54.988Z,98509.25
2022-08-05T07:35:01.590Z,98511.92
2022-08-05T07:36:23.334Z,98516.77
2022-08-05T07:37:28.877Z,98508.77
2022-08-05T07:38:34.460Z,98510.39
2022-08-05T07:40:04.731Z,98509.96
2022-08-05T07:41:04.533Z,98507.39
2022-08-05T07:42:18.984Z,98506.33
2022-08-05T07:43:33.702Z,98504.91
2022-08-05T07:44:36.557Z,98506.27
2022-08-05T07:45:57.136Z,98506.61
2022-08-05T07:47:00.063Z,98506.92
2022-08-05T07:48:02.442Z,98511.72
2022-08-05T07:49:06.206Z,98510.04
2022-08-05T07:50:10.028Z,98511.20
2022-08-05T07:51:23.823Z,98513.36
2022-08-05T07:52:39.873Z,98509.45
2022-08-05T07:53:49.997Z,98508.77
2022-08-05T07:54:53.046Z,98509.74
2022-08-05T07:56:06.098Z,98507.65
2022-08-05T07:57:51.372Z,98511.35
2022-08-05T07:58:57.321Z,98511.92
2022-08-05T08:00:00.209Z,98514.91
2022-08-05T08:01:01.904Z,98513.05
2022-08-05T08:02:16.499Z,98511.29
2022-08-05T08:03:21.552Z,98508.33
2022-08-05T08:04:37.318Z,98511.30
2022-08-05T08:05:49.716Z,98506.65
2022-08-05T08:06:51.677Z,98510.23
2022-08-05T08:07:59.868Z,98504.14
2022-08-05T08:09:02.268Z,98510.66
2022-08-05T08:10:05.368Z,98507.99
2022-08-05T08:11:08.940Z,98508.73
2022-08-05T08:12:33.410Z,98505.29
2022-08-05T08:13:49.298Z,98510.01
2022-08-05T08:14:57.432Z,98507.52
2022-08-05T08:16:35.215Z,98504.70
2022-08-05T08:17:27.936Z,98505.62
2022-08-05T08:18:32.001Z,98504.31
2022-08-05T08:20:21.925Z,98507.18
2022-08-05T08:21:03.201Z,98504.18
2022-08-05T08:22:09.006Z,98500.64
2022-08-05T08:23:59.663Z,98503.35
2022-08-05T08:24:51.650Z,98498.06
2022-08-05T08:26:00.653Z,98498.63
2022-08-05T08:27:07.039Z,98500.80
2022-08-05T08:28:17.975Z,98497.34
2022-08-05T08:29:45.203Z,98499.52
2022-08-05T08:30:47.973Z,98498.84
2022-08-05T08:31:52.268Z,98499.11
2022-08-05T08:32:54.054Z,98496.20
2022-08-05T08:33:56.352Z,98499.39
2022-08-05T08:34:58.751Z,98495.98
2022-08-05T08:36:29.451Z,98501.47
2022-08-05T08:37:28.075Z,98503.75
2022-08-05T08:38:35.248Z,98504.02
2022-08-05T08:39:38.142Z,98503.94
2022-08-05T08:40:51.434Z,98505.59
2022-08-05T08:42:02.482Z,98507.02
2022-08-05T08:45:21.001Z,98506.46
2022-08-05T08:45:21.241Z,98501.64
2022-08-05T08:45:58.933Z,98505.30
2022-08-05T08:47:03.834Z,98504.92
2022-08-05T08:49:03.545Z,98501.52
2022-08-05T08:50:06.011Z,98503.13
2022-08-05T08:52:01.662Z,98504.09
2022-08-05T08:52:51.636Z,98503.21
2022-08-05T08:53:55.152Z,98498.23
2022-08-05T08:54:57.810Z,98501.33
2022-08-05T08:56:06.043Z,98501.41
2022-08-05T08:57:11.548Z,98498.39
2022-08-05T08:58:16.275Z,98499.04
2022-08-05T08:59:20.934Z,98499.20
2022-08-05T09:00:23.654Z,98500.64
2022-08-05T09:01:28.377Z,98502.48
2022-08-05T09:02:30.929Z,98500.59
2022-08-05T09:03:45.381Z,98497.02
2022-08-05T09:05:15.929Z,98495.66
2022-08-05T09:06:11.643Z,98494.94
2022-08-05T09:07:28.167Z,98494.87
2022-08-05T09:08:30.538Z,98492.17
2022-08-05T09:09:35.443Z,98494.02
2022-08-05T09:10:41.340Z,98493.23
2022-08-05T09:11:52.457Z,98491.20
2022-08-05T09:13:04.717Z,98487.25
2022-08-05T09:14:54.814Z,98488.67
2022-08-05T09:15:30.490Z,98486.38
2022-08-05T09:16:32.726Z,98483.13
2022-08-05T09:17:40.486Z,98478.38
2022-08-05T09:18:44.529Z,98482.90
2022-08-05T09:20:01.374Z,98486.30
2022-08-05T09:21:04.810Z,98487.17
2022-08-05T09:22:31.090Z,98485.02
2022-08-05T09:23:37.525Z,98484.00
2022-08-05T09:25:13.793Z,98484.09
2022-08-05T09:26:25.178Z,98485.69
2022-08-05T09:28:05.053Z,98479.63
2022-08-05T09:29:04.932Z,98485.67
2022-08-05T09:30:07.318Z,98486.09
2022-08-05T09:31:23.193Z,98485.20
2022-08-05T09:32:51.104Z,98483.05
2022-08-05T09:33:55.369Z,98483.20
2022-08-05T09:34:58.990Z,98484.40
2022-08-05T09:36:11.834Z,98485.50
2022-08-05T09:38:11.653Z,98486.69
2022-08-05T09:39:00.084Z,98480.64
2022-08-05T09:40:04.794Z,98485.33
2022-08-05T09:41:10.051Z,98481.03
2022-08-05T09:42:17.400Z,98481.50
2022-08-05T09:43:41.366Z,98478.55
2022-08-05T09:44:50.501Z,98477.65
2022-08-05T09:46:06.177Z,98474.11
2022-08-05T09:47:16.529Z,98476.42
2022-08-05T09:48:31.453Z,98476.42
2022-08-05T09:49:54.593Z,98479.84
2022-08-05T09:51:01.058Z,98481.43
2022-08-05T09:52:27.468Z,98473.64
2022-08-05T09:53:54.794Z,98474.19
2022-08-05T09:54:56.833Z,98474.18
2022-08-05T09:56:04.526Z,98471.72
2022-08-05T09:57:23.150Z,98473.48
2022-08-05T09:58:26.622Z,98471.63
2022-08-05T09:59:35.016Z,98471.77
2022-08-05T10:00:39.550Z,98471.36
2022-08-05T10:01:46.491Z,98470.81
2022-08-05T10:02:51.389Z,98473.77
2022-08-05T10:04:00.230Z,98467.02
2022-08-05T10:05:26.654Z,98467.65
2022-08-05T10:06:29.276Z,98471.12
2022-08-05T10:08:36.136Z,98469.91
2022-08-05T10:09:27.329Z,98461.60
2022-08-05T10:10:48.192Z,98457.20
2022-08-05T10:11:51.987Z,98453.86
2022-08-05T10:12:57.117Z,98454.95
2022-08-05T10:13:58.774Z,98455.16
2022-08-05T10:15:20.321Z,98454.25
2022-08-05T10:16:41.773Z,98453.25
2022-08-05T10:18:22.698Z,98455.87
2022-08-05T10:20:02.695Z,98449.96
2022-08-05T10:20:57.721Z,98448.36
2022-08-05T10:21:59.433Z,98453.38
2022-08-05T10:23:01.971Z,98453.03
2022-08-05T10:24:10.585Z,98453.43
2022-08-05T10:25:14.396Z,98448.48
2022-08-05T10:26:16.473Z,98447.59
2022-08-05T10:27:19.003Z,98450.28
2022-08-05T10:28:30.550Z,98446.73
2022-08-05T10:30:06.784Z,98447.19
2022-08-05T10:32:50.500Z,98444.93
2022-08-05T10:32:55.447Z,98439.02
2022-08-05T10:33:45.416Z,98442.36
2022-08-05T10:34:55.376Z,98441.60
2022-08-05T10:36:00.077Z,98444.11
2022-08-05T10:37:02.454Z,98445.34
2022-08-05T10:38:06.127Z,98446.69
2022-08-05T10:39:24.915Z,98447.02
2022-08-05T10:40:49.567Z,98443.36
2022-08-05T10:42:00.485Z,98445.75
2022-08-05T10:43:37.253Z,98442.96
2022-08-05T10:44:45.875Z,98441.84
2022-08-05T10:46:06.215Z,98439.99
2022-08-05T10:47:26.938Z,98437.10
2022-08-05T10:48:52.762Z,98436.53
2022-08-05T10:50:32.863Z,98433.25
2022-08-05T10:51:58.282Z,98431.98
2022-08-05T10:53:02.260Z,98429.58
2022-08-05T10:54:28.166Z,98428.21
2022-08-05T10:55:27.771Z,98430.63
2022-08-05T10:56:44.395Z,98423.35
2022-08-05T10:57:47.124Z,98420.87
2022-08-05T10:58:52.939Z,98416.59
2022-08-05T11:00:09.902Z,98424.52
2022-08-05T11:01:55.158Z,98417.02
2022-08-05T11:03:24.371Z,98425.65
2022-08-05T11:04:28.113Z,98421.52
2022-08-05T11:05:34.645Z,98424.48
2022-08-05T11:06:57.981Z,98423.71
2022-08-05T11:08:21.756Z,98423.29
2022-08-05T11:09:32.482Z,98426.02
2022-08-05T11:10:50.258Z,98421.02
2022-08-05T11:12:04.202Z,98425.11
2022-08-05T11:13:06.879Z,98425.04
2022-08-05T11:14:11.636Z,98422.16
2022-08-05T11:15:20.479Z,98422.75
2022-08-05T11:16:47.953Z,98419.77
2022-08-05T11:18:00.279Z,98423.73
2022-08-05T11:20:10.007Z,98418.71
2022-08-05T11:20:53.784Z,98423.64
2022-08-05T11:21:57.906Z,98418.14
2022-08-05T11:23:06.112Z,98415.30
2022-08-05T11:24:30.437Z,98415.45
2022-08-05T11:26:05.698Z,98416.70
2022-08-05T11:27:45.693Z,98414.84
2022-08-05T11:28:54.987Z,98421.42
2022-08-05T11:30:00.248Z,98422.70
2022-08-05T11:31:01.820Z,98419.23
2022-08-05T11:32:27.375Z,98418.46
2022-08-05T11:33:54.761Z,98418.64
2022-08-05T11:34:57.529Z,98418.30
2022-08-05T11:36:02.907Z,98414.64
2022-08-05T11:38:28.889Z,98417.53
2022-08-05T11:38:45.748Z,98412.31
2022-08-05T11:40:00.642Z,98415.58
2022-08-05T11:41:56.547Z,98419.55
2022-08-05T11:42:46.053Z,98420.02
2022-08-05T11:44:06.503Z,98416.70
2022-08-05T11:45:23.267Z,98416.85
2022-08-05T11:46:34.047Z,98413.82
2022-08-05T11:47:49.523Z,98418.66
2022-08-05T11:48:52.268Z,98416.88
2022-08-05T11:49:58.946Z,98420.20
2022-08-05T11:51:01.788Z,98418.45
2022-08-05T11:52:08.774Z,98418.98
2022-08-05T11:53:13.383Z,98420.05
2022-08-05T11:54:33.508Z,98420.69
2022-08-05T11:55:36.685Z,98413.02
2022-08-05T11:56:51.402Z,98415.05
2022-08-05T11:58:09.676Z,98407.65
2022-08-05T11:59:21.472Z,98405.08
2022-08-05T12:00:31.261Z,98410.53
2022-08-05T12:01:32.959Z,98411.45
2022-08-05T12:02:36.246Z,98410.52
2022-08-05T12:03:56.051Z,98412.70
2022-08-05T12:04:59.724Z,98413.30
2022-08-05T12:06:06.636Z,98414.98
2022-08-05T12:07:14.811Z,98419.49
2022-08-05T12:08:18.279Z,98416.12
2022-08-05T12:09:38.562Z,98414.89
2022-08-05T12:10:49.535Z,98413.96
2022-08-05T12:11:54.455Z,98413.54
2022-08-05T12:13:15.571Z,98405.81
2022-08-05T12:14:19.408Z,98405.45
2022-08-05T12:15:33.278Z,98404.60
2022-08-05T12:16:45.373Z,98401.76
2022-08-05T12:18:02.879Z,98400.16
2022-08-05T12:19:08.671Z,98397.35
2022-08-05T12:20:25.469Z,98397.82
2022-08-05T12:21:32.482Z,98396.42
2022-08-05T12:22:40.956Z,98396.64
2022-08-05T12:23:54.915Z,98390.80
2022-08-05T12:24:57.744Z,98395.26
2022-08-05T12:25:59.375Z,98392.14
2022-08-05T12:27:09.715Z,98393.59
2022-08-05T12:28:37.689Z,98385.36
2022-08-05T12:29:39.527Z,98387.97
2022-08-05T12:30:46.038Z,98388.41
2022-08-05T12:32:02.046Z,98389.20
2022-08-05T12:33:07.452Z,98389.75
2022-08-05T12:34:29.931Z,98385.66
2022-08-05T12:35:39.438Z,98385.42
2022-08-05T12:36:43.584Z,98385.48
2022-08-05T12:37:47.197Z,98384.91
2022-08-05T12:38:50.588Z,98389.52
2022-08-05T12:39:53.793Z,98392.69
2022-08-05T12:40:59.684Z,98393.28
2022-08-05T12:42:01.622Z,98390.98
2022-08-05T12:43:07.025Z,98394.48
2022-08-05T12:44:21.579Z,98390.70
2022-08-05T12:45:48.370Z,98390.42
2022-08-05T12:46:54.432Z,98388.23
2022-08-05T12:48:17.624Z,98390.87
2022-08-05T12:49:19.058Z,98391.39
2022-08-05T12:50:21.066Z,98389.33
2022-08-05T12:52:14.199Z,98388.73
2022-08-05T12:52:59.695Z,98390.58
2022-08-05T12:54:03.962Z,98392.19
2022-08-05T12:55:28.529Z,98386.21
2022-08-05T12:56:40.827Z,98384.48
2022-08-05T12:58:52.742Z,98380.48
2022-08-05T12:59:13.968Z,98374.65
2022-08-05T13:02:01.166Z,98370.95
2022-08-05T13:02:06.975Z,98367.92
2022-08-05T13:03:12.293Z,98357.77
2022-08-05T13:04:21.202Z,98365.05
2022-08-05T13:05:24.575Z,98364.54
2022-08-05T13:06:41.193Z,98364.48
2022-08-05T13:08:00.141Z,98369.14
2022-08-05T13:09:10.379Z,98369.95
2022-08-05T13:10:19.531Z,98370.98
2022-08-05T13:11:59.844Z,98374.33
2022-08-05T13:12:51.023Z,98369.20
2022-08-05T13:14:06.467Z,98367.06
2022-08-05T13:15:18.043Z,98368.95
2022-08-05T13:16:28.047Z,98364.36
2022-08-05T13:17:41.871Z,98358.14
2022-08-05T13:18:58.761Z,98363.30
2022-08-05T13:20:16.510Z,98356.61
2022-08-05T13:21:20.909Z,98356.20
2022-08-05T13:22:28.380Z,98350.35
2022-08-05T13:23:31.581Z,98352.29
2022-08-05T13:24:57.313Z,98353.22
2022-08-05T13:26:01.362Z,98352.89
2022-08-05T13:27:03.207Z,98356.39
2022-08-05T13:28:06.445Z,98355.29
2022-08-05T13:29:08.357Z,98353.93
2022-08-05T13:30:34.868Z,98352.15
2022-08-05T13:32:04.023Z,98358.04
2022-08-05T13:33:01.633Z,98354.34
2022-08-05T13:34:23.128Z,98353.89
2022-08-05T13:35:42.674Z,98349.95
2022-08-05T13:36:47.139Z,98350.14
2022-08-05T13:37:55.402Z,98343.73
2022-08-05T13:38:57.582Z,98349.45
2022-08-05T13:40:14.583Z,98346.43
2022-08-05T13:41:21.396Z,98346.58
2022-08-05T13:42:27.491Z,98344.64
2022-08-05T13:43:45.690Z,98339.83
2022-08-05T13:44:55.597Z,98338.15
2022-08-05T13:45:57.623Z,98339.77
2022-08-05T13:47:04.759Z,98341.55
2022-08-05T13:48:58.582Z,98341.30
2022-08-05T13:49:35.377Z,98336.79
2022-08-05T13:50:37.264Z,98335.45
2022-08-05T13:51:41.371Z,98332.23
2022-08-05T13:52:43.548Z,98332.64
2022-08-05T13:53:47.947Z,98331.80
2022-08-05T13:54:53.287Z,98331.52
2022-08-05T13:56:00.166Z,98331.15
2022-08-05T13:57:03.770Z,98332.73
2022-08-05T13:58:07.989Z,98331.77